Time;durP1;ratioP1;P1;durP2;ratioP2;P2;SDS_P1;SDS_P2;PMS_P1;PMS_P2;Temp;Humidity;BMP_temperature;BMP_pressure;BME280_temperature;BME280_humidity;BME280_pressure;Samples;Min_cycle;Max_cycle;Signal;HPM_P1;HPM_P2
2023/10/25 00:00:30;;;;;;;22.70;13.98;;;;;;;;;;5050411;28;20068;-71
2023/10/25 00:02:57;;;;;;;22.42;14.40;;;;;;;;;;5049576;28;20086;-72
2023/10/25 00:05:24;;;;;;;26.48;14.82;;;;;;;;;;5043667;28;20575;-71
2023/10/25 00:07:51;;;;;;;28.05;15.02;;;;;;;;;;5040186;28;20124;-71
2023/10/25 00:10:17;;;;;;;30.15;15.40;;;;;;;;;;5050610;28;20076;-71
2023/10/25 00:12:44;;;;;;;26.63;16.10;;;;;;;;;;5050128;28;20448;-71
2023/10/25 00:15:10;;;;;;;31.38;16.65;;;;;;;;;;5049953;28;20110;-71
2023/10/25 00:17:37;;;;;;;25.95;15.07;;;;;;;;;;5049142;28;20691;-71
2023/10/25 00:20:03;;;;;;;24.23;15.30;;;;;;;;;;5049408;28;20128;-71
2023/10/25 00:22:30;;;;;;;27.30;15.73;;;;;;;;;;5033237;28;20049;-71
2023/10/25 00:24:56;;;;;;;21.92;14.05;;;;;;;;;;5048786;28;20055;-71
2023/10/25 00:27:23;;;;;;;26.88;14.07;;;;;;;;;;5049206;28;20130;-73
2023/10/25 00:29:49;;;;;;;27.85;15.23;;;;;;;;;;5049233;28;20120;-73
2023/10/25 00:32:16;;;;;;;25.50;13.98;;;;;;;;;;5034429;28;20067;-73
2023/10/25 00:34:42;;;;;;;28.05;15.23;;;;;;;;;;5049095;28;20136;-72
2023/10/25 00:37:09;;;;;;;26.48;15.30;;;;;;;;;;5049197;28;20047;-72
2023/10/25 00:39:35;;;;;;;24.88;15.48;;;;;;;;;;5048869;28;20123;-72
2023/10/25 00:42:02;;;;;;;25.98;14.45;;;;;;;;;;5048758;28;20048;-71
2023/10/25 00:44:28;;;;;;;23.15;15.65;;;;;;;;;;5048444;28;20051;-70
2023/10/25 00:46:55;;;;;;;22.25;14.43;;;;;;;;;;5049369;28;20051;-73
2023/10/25 00:49:21;;;;;;;27.70;15.07;;;;;;;;;;5048740;28;20057;-73
2023/10/25 00:51:48;;;;;;;23.85;14.23;;;;;;;;;;5049112;28;20047;-73
2023/10/25 00:54:15;;;;;;;23.35;14.88;;;;;;;;;;5064232;28;20057;-75
2023/10/25 00:56:42;;;;;;;20.85;13.23;;;;;;;;;;5049189;28;20456;-72
2023/10/25 00:59:10;;;;;;;23.30;14.38;;;;;;;;;;5044967;28;20052;-72
2023/10/25 01:01:36;;;;;;;25.23;13.73;;;;;;;;;;5048807;28;20076;-72
2023/10/25 01:04:03;;;;;;;20.85;13.40;;;;;;;;;;5048805;28;20045;-72
2023/10/25 01:06:29;;;;;;;19.27;12.52;;;;;;;;;;5045449;28;20183;-73
2023/10/25 01:08:56;;;;;;;21.88;13.20;;;;;;;;;;5048798;28;20128;-73
2023/10/25 01:11:22;;;;;;;22.40;13.82;;;;;;;;;;5048425;28;20092;-73
2023/10/25 01:13:49;;;;;;;18.23;12.77;;;;;;;;;;5048767;28;20053;-73
2023/10/25 01:16:15;;;;;;;21.42;13.20;;;;;;;;;;5048710;28;20068;-73
2023/10/25 01:18:42;;;;;;;24.42;14.35;;;;;;;;;;5064025;28;20053;-73
2023/10/25 01:21:08;;;;;;;25.08;14.10;;;;;;;;;;5048260;28;20052;-73
2023/10/25 01:23:35;;;;;;;22.52;15.73;;;;;;;;;;5048246;28;20049;-73
2023/10/25 01:26:01;;;;;;;28.80;14.68;;;;;;;;;;5048091;28;20547;-73
2023/10/25 01:28:28;;;;;;;24.63;15.68;;;;;;;;;;5048036;28;20476;-73
2023/10/25 01:30:54;;;;;;;28.52;16.98;;;;;;;;;;5046317;28;20055;-73
2023/10/25 01:33:21;;;;;;;26.10;16.13;;;;;;;;;;5048835;28;20099;-73
2023/10/25 01:35:47;;;;;;;33.28;17.45;;;;;;;;;;5048257;28;20128;-73
2023/10/25 01:38:14;;;;;;;40.28;18.90;;;;;;;;;;5048363;28;20115;-73
2023/10/25 01:40:40;;;;;;;38.70;20.48;;;;;;;;;;5048656;28;20140;-73
2023/10/25 01:43:06;;;;;;;37.53;19.77;;;;;;;;;;5048227;28;20055;-73
2023/10/25 01:45:33;;;;;;;35.35;19.70;;;;;;;;;;5048987;28;20551;-72
2023/10/25 01:47:59;;;;;;;35.00;20.05;;;;;;;;;;5048021;28;20132;-73
2023/10/25 01:50:26;;;;;;;37.20;20.60;;;;;;;;;;5047864;28;20103;-73
2023/10/25 01:52:52;;;;;;;37.45;21.65;;;;;;;;;;5047897;28;20045;-73
2023/10/25 01:55:19;;;;;;;38.40;21.17;;;;;;;;;;5048175;28;20091;-71
2023/10/25 01:57:45;;;;;;;40.95;21.15;;;;;;;;;;5043848;28;20045;-73
2023/10/25 02:00:12;;;;;;;36.63;21.10;;;;;;;;;;5052325;28;20478;-74
2023/10/25 02:02:38;;;;;;;41.95;21.20;;;;;;;;;;5052183;28;20049;-72
2023/10/25 02:05:05;;;;;;;33.28;20.40;;;;;;;;;;5047455;28;20482;-73
2023/10/25 02:07:32;;;;;;;35.72;20.00;;;;;;;;;;5048275;28;20132;-73
2023/10/25 02:09:58;;;;;;;39.95;22.85;;;;;;;;;;5051422;28;20577;-73
2023/10/25 02:12:24;;;;;;;39.10;20.42;;;;;;;;;;5051843;28;20641;-72
2023/10/25 02:14:51;;;;;;;33.05;20.40;;;;;;;;;;5052597;28;20110;-73
2023/10/25 02:17:17;;;;;;;36.45;21.33;;;;;;;;;;5052293;28;20130;-73
2023/10/25 02:19:45;;;;;;;35.97;21.25;;;;;;;;;;5051822;28;20132;-73
2023/10/25 02:22:12;;;;;;;38.38;21.13;;;;;;;;;;5052016;28;20088;-73
2023/10/25 02:24:38;;;;;;;37.97;22.25;;;;;;;;;;5051801;28;20489;-72
2023/10/25 02:27:05;;;;;;;36.50;21.27;;;;;;;;;;5051673;28;20099;-72
2023/10/25 02:29:31;;;;;;;36.15;21.90;;;;;;;;;;5051803;28;20135;-72
2023/10/25 02:31:58;;;;;;;43.20;21.17;;;;;;;;;;5045977;28;20045;-72
2023/10/25 02:34:24;;;;;;;40.25;22.70;;;;;;;;;;5051390;28;20049;-72
2023/10/25 02:36:51;;;;;;;39.92;21.80;;;;;;;;;;5051269;28;20053;-73
2023/10/25 02:39:17;;;;;;;41.53;21.90;;;;;;;;;;5051571;28;20053;-72
2023/10/25 02:41:43;;;;;;;40.95;20.98;;;;;;;;;;5051342;28;20071;-72
2023/10/25 02:44:10;;;;;;;39.42;21.25;;;;;;;;;;5051582;28;20440;-72
2023/10/25 02:46:36;;;;;;;36.25;22.20;;;;;;;;;;5051330;28;20052;-72
2023/10/25 02:49:03;;;;;;;36.58;20.73;;;;;;;;;;5051301;28;20057;-72
2023/10/25 02:51:29;;;;;;;40.92;23.00;;;;;;;;;;5051177;28;20057;-72
2023/10/25 02:53:56;;;;;;;43.85;24.15;;;;;;;;;;5050966;28;20140;-72
2023/10/25 02:56:22;;;;;;;41.20;21.25;;;;;;;;;;5050761;28;20172;-72
2023/10/25 02:58:49;;;;;;;39.58;21.27;;;;;;;;;;5041309;28;20140;-72
2023/10/25 03:01:20;;;;;;;42.08;20.67;;;;;;;;;;5051106;28;20225;-72
2023/10/25 03:03:47;;;;;;;42.28;21.65;;;;;;;;;;5051252;28;20048;-73
2023/10/25 03:06:13;;;;;;;38.05;20.65;;;;;;;;;;5041310;28;20051;-72
2023/10/25 03:08:40;;;;;;;37.03;20.63;;;;;;;;;;5051023;28;20505;-72
2023/10/25 03:11:06;;;;;;;42.45;21.20;;;;;;;;;;5050847;28;20133;-72
2023/10/25 03:13:32;;;;;;;41.08;21.88;;;;;;;;;;5050562;28;20041;-72
2023/10/25 03:15:59;;;;;;;44.55;23.13;;;;;;;;;;5051043;28;20056;-72
2023/10/25 03:18:25;;;;;;;37.95;20.55;;;;;;;;;;5050592;28;20131;-72
2023/10/25 03:20:52;;;;;;;47.88;23.83;;;;;;;;;;5065962;28;20049;-72
2023/10/25 03:23:18;;;;;;;41.85;22.90;;;;;;;;;;5050430;28;20053;-72
2023/10/25 03:25:45;;;;;;;42.85;23.02;;;;;;;;;;5050463;28;20146;-72
2023/10/25 03:28:11;;;;;;;43.95;22.80;;;;;;;;;;5042295;28;20128;-72
2023/10/25 03:30:38;;;;;;;56.53;25.50;;;;;;;;;;5038136;28;20049;-72
2023/10/25 03:33:04;;;;;;;50.47;24.58;;;;;;;;;;5046849;28;20127;-72
2023/10/25 03:35:31;;;;;;;50.90;23.98;;;;;;;;;;5050528;28;20047;-72
2023/10/25 03:37:57;;;;;;;44.97;23.42;;;;;;;;;;5041705;28;20073;-72
2023/10/25 03:40:23;;;;;;;52.85;24.83;;;;;;;;;;5042566;28;20053;-72
2023/10/25 03:42:50;;;;;;;53.13;25.02;;;;;;;;;;5049927;28;20080;-72
2023/10/25 03:45:17;;;;;;;51.90;24.92;;;;;;;;;;5050043;28;20071;-72
2023/10/25 03:47:44;;;;;;;51.92;24.15;;;;;;;;;;5048644;28;20107;-72
2023/10/25 03:50:11;;;;;;;55.58;24.52;;;;;;;;;;5050185;28;20052;-72
2023/10/25 03:52:38;;;;;;;53.08;25.85;;;;;;;;;;5050241;28;20041;-72
2023/10/25 03:55:05;;;;;;;63.03;24.92;;;;;;;;;;5050442;28;20073;-72
2023/10/25 03:57:31;;;;;;;60.70;25.60;;;;;;;;;;5043782;28;20131;-72
2023/10/25 03:59:58;;;;;;;53.55;26.00;;;;;;;;;;5043270;28;20128;-72
2023/10/25 04:02:27;;;;;;;55.20;24.80;;;;;;;;;;5049694;28;20501;-72
2023/10/25 04:04:54;;;;;;;55.15;23.77;;;;;;;;;;5047779;28;20126;-72
2023/10/25 04:07:20;;;;;;;51.88;24.48;;;;;;;;;;5039799;28;20055;-73
2023/10/25 04:09:47;;;;;;;62.92;26.48;;;;;;;;;;5049470;28;20063;-72
2023/10/25 04:12:14;;;;;;;60.17;27.38;;;;;;;;;;5049795;28;20045;-72
2023/10/25 04:14:46;;;;;;;63.08;26.30;;;;;;;;;;5049480;28;20496;-72
2023/10/25 04:17:12;;;;;;;71.32;27.70;;;;;;;;;;5049687;28;20081;-72
2023/10/25 04:19:40;;;;;;;55.75;24.65;;;;;;;;;;5049706;28;20057;-73
2023/10/25 04:22:07;;;;;;;61.95;26.98;;;;;;;;;;5050154;28;20057;-72
2023/10/25 04:24:34;;;;;;;57.75;25.42;;;;;;;;;;5049402;28;20048;-72
2023/10/25 04:27:01;;;;;;;56.28;26.65;;;;;;;;;;5049217;28;20485;-72
2023/10/25 04:29:28;;;;;;;62.08;26.00;;;;;;;;;;5049859;28;20052;-72
2023/10/25 04:31:55;;;;;;;49.72;24.35;;;;;;;;;;5037379;28;20059;-72
2023/10/25 04:34:22;;;;;;;55.42;25.42;;;;;;;;;;5049623;28;20143;-72
2023/10/25 04:36:48;;;;;;;51.03;23.60;;;;;;;;;;5049099;28;20052;-72
2023/10/25 04:39:15;;;;;;;55.05;25.17;;;;;;;;;;5049655;28;20049;-72
2023/10/25 04:41:41;;;;;;;65.25;27.02;;;;;;;;;;5048867;28;20094;-72
2023/10/25 04:44:08;;;;;;;55.88;25.42;;;;;;;;;;5048914;28;20128;-72
2023/10/25 04:46:34;;;;;;;50.80;24.20;;;;;;;;;;5049232;28;20045;-72
2023/10/25 04:49:01;;;;;;;65.43;28.80;;;;;;;;;;5049099;28;20045;-72
2023/10/25 04:51:27;;;;;;;61.30;25.20;;;;;;;;;;5048921;28;20052;-72
2023/10/25 04:53:54;;;;;;;68.95;27.48;;;;;;;;;;5048675;28;20055;-72
2023/10/25 04:56:23;;;;;;;52.25;25.17;;;;;;;;;;5049481;28;20049;-73
2023/10/25 04:58:50;;;;;;;61.60;26.55;;;;;;;;;;5048827;28;20124;-73
2023/10/25 05:01:16;;;;;;;71.82;28.23;;;;;;;;;;5049017;28;20473;-73
2023/10/25 05:03:43;;;;;;;66.20;30.00;;;;;;;;;;5048676;28;20049;-72
2023/10/25 05:06:11;;;;;;;66.57;27.85;;;;;;;;;;5036283;28;20046;-72
2023/10/25 05:08:37;;;;;;;67.60;28.50;;;;;;;;;;5045736;28;20524;-72
2023/10/25 05:11:04;;;;;;;66.85;27.48;;;;;;;;;;5048919;28;20048;-72
2023/10/25 05:13:31;;;;;;;69.38;28.63;;;;;;;;;;5048571;28;20045;-72
2023/10/25 05:15:58;;;;;;;62.00;25.98;;;;;;;;;;5048973;28;20132;-72
2023/10/25 05:18:25;;;;;;;69.70;29.55;;;;;;;;;;5048011;28;20128;-72
2023/10/25 05:20:57;;;;;;;67.45;26.50;;;;;;;;;;5048734;28;20132;-72
2023/10/25 05:23:27;;;;;;;63.15;25.40;;;;;;;;;;5048957;28;20052;-74
2023/10/25 05:25:53;;;;;;;59.40;26.83;;;;;;;;;;5048770;28;20044;-73
2023/10/25 05:28:20;;;;;;;72.95;29.50;;;;;;;;;;5048405;28;20084;-74
2023/10/25 05:30:49;;;;;;;66.45;27.48;;;;;;;;;;5041705;28;20096;-71
2023/10/25 05:33:17;;;;;;;66.22;27.23;;;;;;;;;;5039844;28;20049;-74
2023/10/25 05:35:44;;;;;;;70.45;29.15;;;;;;;;;;5063731;28;20124;-74
2023/10/25 05:38:11;;;;;;;82.90;31.17;;;;;;;;;;5048703;28;20049;-74
2023/10/25 05:40:37;;;;;;;78.00;29.98;;;;;;;;;;5048309;28;20041;-74
2023/10/25 05:43:06;;;;;;;70.20;28.48;;;;;;;;;;5048017;28;20128;-74
2023/10/25 05:45:33;;;;;;;68.53;29.63;;;;;;;;;;5048255;28;20141;-74
2023/10/25 05:47:59;;;;;;;63.25;27.08;;;;;;;;;;5048583;28;20045;-74
2023/10/25 05:50:26;;;;;;;67.53;29.40;;;;;;;;;;5048137;28;20098;-72
2023/10/25 05:52:53;;;;;;;69.95;29.60;;;;;;;;;;5048114;28;20041;-72
2023/10/25 05:55:19;;;;;;;85.07;30.85;;;;;;;;;;5047996;28;20084;-72
2023/10/25 05:57:46;;;;;;;79.55;31.85;;;;;;;;;;5044868;28;20052;-72
2023/10/25 06:00:13;;;;;;;88.68;31.38;;;;;;;;;;5048393;28;20102;-72
2023/10/25 06:02:41;;;;;;;72.78;29.42;;;;;;;;;;5047757;28;20669;-72
2023/10/25 06:05:09;;;;;;;78.07;30.15;;;;;;;;;;5045177;28;20041;-74
2023/10/25 06:07:38;;;;;;;81.32;32.60;;;;;;;;;;5048412;28;20044;-72
2023/10/25 06:10:05;;;;;;;75.45;29.08;;;;;;;;;;5048624;28;20050;-71
2023/10/25 06:12:32;;;;;;;76.05;29.88;;;;;;;;;;5047860;28;20429;-73
2023/10/25 06:14:58;;;;;;;85.70;31.63;;;;;;;;;;5047689;28;20098;-73
2023/10/25 06:17:25;;;;;;;73.82;28.50;;;;;;;;;;5047882;28;20049;-72
2023/10/25 06:19:52;;;;;;;67.90;28.73;;;;;;;;;;5047709;28;20077;-72
2023/10/25 06:22:20;;;;;;;65.10;29.02;;;;;;;;;;5047829;28;20069;-71
2023/10/25 06:24:46;;;;;;;66.78;28.17;;;;;;;;;;5047837;28;20098;-72
2023/10/25 06:27:13;;;;;;;73.53;28.95;;;;;;;;;;5048288;28;20072;-71
2023/10/25 06:29:39;;;;;;;61.80;26.77;;;;;;;;;;5047890;28;20110;-74
2023/10/25 06:32:06;;;;;;;63.88;27.00;;;;;;;;;;5031788;28;20119;-72
2023/10/25 06:34:32;;;;;;;63.28;27.13;;;;;;;;;;5046811;28;20053;-74
2023/10/25 06:36:59;;;;;;;67.38;27.75;;;;;;;;;;5047828;28;20124;-73
2023/10/25 06:39:25;;;;;;;73.82;29.52;;;;;;;;;;5047496;28;20449;-74
2023/10/25 06:41:52;;;;;;;74.25;29.70;;;;;;;;;;5047486;28;20132;-71
2023/10/25 06:44:18;;;;;;;70.43;28.42;;;;;;;;;;5051083;28;20099;-73
2023/10/25 06:46:45;;;;;;;69.28;30.30;;;;;;;;;;5051401;28;20067;-71
2023/10/25 06:49:12;;;;;;;67.90;28.55;;;;;;;;;;5050981;28;20048;-73
2023/10/25 06:51:38;;;;;;;69.03;29.08;;;;;;;;;;5051192;28;20535;-74
2023/10/25 06:54:06;;;;;;;76.00;27.48;;;;;;;;;;5051534;28;20157;-74
2023/10/25 06:56:33;;;;;;;83.75;32.22;;;;;;;;;;5050817;28;20128;-73
2023/10/25 06:58:59;;;;;;;71.10;27.95;;;;;;;;;;5045203;28;20145;-71
2023/10/25 07:01:27;;;;;;;65.45;27.48;;;;;;;;;;5050585;28;20041;-74
2023/10/25 07:03:56;;;;;;;58.53;24.90;;;;;;;;;;5050871;28;20045;-74
2023/10/25 07:06:26;;;;;;;59.70;25.40;;;;;;;;;;5044994;28;20610;-74
2023/10/25 07:08:56;;;;;;;63.85;25.98;;;;;;;;;;5050931;28;20053;-73
2023/10/25 07:11:24;;;;;;;63.30;24.98;;;;;;;;;;5050768;28;20144;-74
2023/10/25 07:13:51;;;;;;;57.67;26.33;;;;;;;;;;5051299;28;20124;-72
2023/10/25 07:16:17;;;;;;;58.78;24.13;;;;;;;;;;5050993;28;20104;-71
2023/10/25 07:18:45;;;;;;;49.25;23.73;;;;;;;;;;5050743;28;20095;-74
2023/10/25 07:21:12;;;;;;;43.95;21.30;;;;;;;;;;5050336;28;20049;-73
2023/10/25 07:23:38;;;;;;;51.00;22.67;;;;;;;;;;5050514;28;20079;-73
2023/10/25 07:26:06;;;;;;;42.67;21.88;;;;;;;;;;5040342;28;20128;-73
2023/10/25 07:28:33;;;;;;;47.40;21.92;;;;;;;;;;5045067;28;20142;-73
2023/10/25 07:31:00;;;;;;;41.33;20.98;;;;;;;;;;5045257;28;20098;-73
2023/10/25 07:33:27;;;;;;;44.67;22.00;;;;;;;;;;5050278;28;20056;-73
2023/10/25 07:35:54;;;;;;;41.15;19.40;;;;;;;;;;5050425;28;20551;-74
2023/10/25 07:38:21;;;;;;;41.35;21.00;;;;;;;;;;5050589;28;20049;-74
2023/10/25 07:40:49;;;;;;;39.95;20.55;;;;;;;;;;5050463;28;20060;-74
2023/10/25 07:43:16;;;;;;;36.25;17.33;;;;;;;;;;5049878;28;20045;-73
2023/10/25 07:45:42;;;;;;;36.10;18.77;;;;;;;;;;5049805;28;20114;-74
2023/10/25 07:48:09;;;;;;;34.25;18.20;;;;;;;;;;5050322;28;20049;-73
2023/10/25 07:50:36;;;;;;;35.53;18.10;;;;;;;;;;5050218;28;20095;-75
2023/10/25 07:53:02;;;;;;;40.88;18.52;;;;;;;;;;5049970;28;20049;-72
2023/10/25 07:55:29;;;;;;;37.05;17.92;;;;;;;;;;5048716;28;20522;-73
2023/10/25 07:57:59;;;;;;;31.35;16.25;;;;;;;;;;5040973;28;20712;-72
2023/10/25 08:00:29;;;;;;;31.83;17.17;;;;;;;;;;5049456;28;20052;-72
2023/10/25 08:02:55;;;;;;;32.13;17.58;;;;;;;;;;5050528;28;20124;-74
2023/10/25 08:05:22;;;;;;;27.17;15.55;;;;;;;;;;5044096;28;20108;-74
2023/10/25 08:07:49;;;;;;;28.08;15.40;;;;;;;;;;5062063;28;20132;-73
2023/10/25 08:10:15;;;;;;;34.08;17.05;;;;;;;;;;5049543;28;20146;-73
2023/10/25 08:12:42;;;;;;;26.90;14.90;;;;;;;;;;5049571;28;20160;-73
2023/10/25 08:15:08;;;;;;;31.90;14.80;;;;;;;;;;5049464;28;20048;-74
2023/10/25 08:17:35;;;;;;;25.15;14.35;;;;;;;;;;5049555;28;20037;-71
2023/10/25 08:20:02;;;;;;;28.13;14.70;;;;;;;;;;5048185;28;20107;-73
2023/10/25 08:22:29;;;;;;;27.55;14.85;;;;;;;;;;5050009;28;20049;-71
2023/10/25 08:24:55;;;;;;;26.05;14.35;;;;;;;;;;5047887;28;20448;-71
2023/10/25 08:27:22;;;;;;;22.70;13.45;;;;;;;;;;5049181;28;20084;-73
2023/10/25 08:29:48;;;;;;;22.10;14.48;;;;;;;;;;5048880;28;20056;-73
2023/10/25 08:32:15;;;;;;;22.23;13.23;;;;;;;;;;5040669;28;20059;-71
2023/10/25 08:34:45;;;;;;;20.63;13.25;;;;;;;;;;5049416;28;20061;-73
2023/10/25 08:37:13;;;;;;;38.35;19.60;;;;;;;;;;5048995;28;20398;-74
2023/10/25 08:39:42;;;;;;;24.08;12.82;;;;;;;;;;5049096;28;20114;-72
2023/10/25 08:42:11;;;;;;;16.42;11.50;;;;;;;;;;5049130;28;20088;-73
2023/10/25 08:44:41;;;;;;;21.73;11.88;;;;;;;;;;5049861;28;20057;-73
2023/10/25 08:47:09;;;;;;;21.58;11.75;;;;;;;;;;5049412;28;20398;-73
2023/10/25 08:49:36;;;;;;;17.88;11.40;;;;;;;;;;5049494;28;20088;-74
2023/10/25 08:52:02;;;;;;;17.95;11.52;;;;;;;;;;5063995;28;20072;-73
2023/10/25 08:54:29;;;;;;;23.98;12.23;;;;;;;;;;5048401;28;20131;-72
2023/10/25 08:56:55;;;;;;;19.77;11.55;;;;;;;;;;5062990;28;20080;-71
2023/10/25 08:59:22;;;;;;;19.33;11.98;;;;;;;;;;5037636;28;20049;-72
2023/10/25 09:01:49;;;;;;;20.45;11.07;;;;;;;;;;5048770;28;20075;-73
2023/10/25 09:04:15;;;;;;;15.50;11.10;;;;;;;;;;5048624;28;20091;-72
2023/10/25 09:06:42;;;;;;;19.80;12.20;;;;;;;;;;5036528;28;20055;-71
2023/10/25 09:09:09;;;;;;;19.02;10.45;;;;;;;;;;5048688;28;20053;-74
2023/10/25 09:11:39;;;;;;;16.33;10.20;;;;;;;;;;5048580;28;20102;-73
2023/10/25 09:14:06;;;;;;;20.33;11.52;;;;;;;;;;5048694;28;20044;-73
2023/10/25 09:16:33;;;;;;;20.98;10.82;;;;;;;;;;5048451;28;20560;-74
2023/10/25 09:19:01;;;;;;;16.05;10.70;;;;;;;;;;5048222;28;20049;-73
2023/10/25 09:21:28;;;;;;;15.10;9.90;;;;;;;;;;5048562;28;20117;-73
2023/10/25 09:23:56;;;;;;;15.00;10.23;;;;;;;;;;5048435;28;20060;-72
2023/10/25 09:26:23;;;;;;;17.70;11.23;;;;;;;;;;5048081;28;20085;-73
2023/10/25 09:28:53;;;;;;;17.85;10.48;;;;;;;;;;5048721;28;20405;-73
2023/10/25 09:31:24;;;;;;;17.48;11.00;;;;;;;;;;5038453;28;20076;-72
2023/10/25 09:33:51;;;;;;;20.95;9.35;;;;;;;;;;5032977;28;20045;-72
2023/10/25 09:36:21;;;;;;;20.60;11.10;;;;;;;;;;5048165;28;20056;-72
2023/10/25 09:38:49;;;;;;;20.77;11.57;;;;;;;;;;5047996;28;20122;-72
2023/10/25 09:41:19;;;;;;;15.88;9.73;;;;;;;;;;5038116;28;20057;-71
2023/10/25 09:43:47;;;;;;;20.20;9.80;;;;;;;;;;5028016;28;20072;-74
2023/10/25 09:46:22;;;;;;;13.10;8.45;;;;;;;;;;5027250;28;20095;-72
2023/10/25 09:49:04;;;;;;;17.42;8.57;;;;;;;;;;5027779;28;20065;-73
2023/10/25 09:51:40;;;;;;;17.40;9.15;;;;;;;;;;5033819;28;20048;-73
2023/10/25 09:54:11;;;;;;;16.77;8.73;;;;;;;;;;5043569;28;20482;-75
2023/10/25 09:56:38;;;;;;;20.33;12.95;;;;;;;;;;5039843;28;20049;-74
2023/10/25 09:59:06;;;;;;;17.15;8.88;;;;;;;;;;5027752;28;20053;-75
2023/10/25 10:01:33;;;;;;;13.88;8.30;;;;;;;;;;5035785;28;20119;-74
2023/10/25 10:04:05;;;;;;;20.67;9.43;;;;;;;;;;5047988;28;20138;-72
2023/10/25 10:06:43;;;;;;;14.90;8.32;;;;;;;;;;5015007;28;20042;-72
2023/10/25 10:09:45;;;;;;;14.05;7.50;;;;;;;;;;5035521;28;20056;-76
2023/10/25 10:12:13;;;;;;;13.50;8.43;;;;;;;;;;5034787;28;20469;-74
2023/10/25 10:14:41;;;;;;;15.50;8.45;;;;;;;;;;5030673;28;20046;-74
2023/10/25 10:17:17;;;;;;;13.80;8.00;;;;;;;;;;5028229;28;20512;-72
2023/10/25 10:19:45;;;;;;;13.77;7.53;;;;;;;;;;5039227;28;20552;-71
2023/10/25 10:22:13;;;;;;;10.95;7.40;;;;;;;;;;5036042;28;20161;-71
2023/10/25 10:24:44;;;;;;;16.42;8.30;;;;;;;;;;5037729;28;20432;-68
2023/10/25 10:27:15;;;;;;;11.70;7.55;;;;;;;;;;5045440;28;20057;-70
2023/10/25 10:29:42;;;;;;;10.73;6.50;;;;;;;;;;5036251;28;20042;-69
2023/10/25 10:32:09;;;;;;;19.33;7.50;;;;;;;;;;5039153;28;20056;-71
2023/10/25 10:34:43;;;;;;;18.17;6.43;;;;;;;;;;5034753;28;20037;-70
2023/10/25 10:37:14;;;;;;;15.10;6.95;;;;;;;;;;5042150;28;20046;-70
2023/10/25 10:39:56;;;;;;;12.35;7.35;;;;;;;;;;5040585;28;20128;-68
2023/10/25 10:42:28;;;;;;;13.98;7.32;;;;;;;;;;5045910;28;20539;-68
2023/10/25 10:44:55;;;;;;;11.73;6.70;;;;;;;;;;5035635;28;20041;-67
2023/10/25 10:47:27;;;;;;;11.18;6.47;;;;;;;;;;5034384;28;20045;-70
2023/10/25 10:49:56;;;;;;;9.02;5.43;;;;;;;;;;5043160;28;20037;-66
2023/10/25 10:52:24;;;;;;;10.77;5.50;;;;;;;;;;5045134;28;20132;-69
2023/10/25 10:54:52;;;;;;;5.82;4.60;;;;;;;;;;5054466;28;20056;-65
2023/10/25 10:57:20;;;;;;;7.95;4.88;;;;;;;;;;5048246;28;20141;-65
2023/10/25 10:59:49;;;;;;;11.45;4.55;;;;;;;;;;5049295;28;20063;-65
2023/10/25 11:02:17;;;;;;;9.35;4.28;;;;;;;;;;5049576;28;20049;-67
2023/10/25 11:04:44;;;;;;;7.97;4.47;;;;;;;;;;5044435;28;20045;-67
2023/10/25 11:07:12;;;;;;;6.55;4.00;;;;;;;;;;5029577;28;20049;-68
2023/10/25 11:09:39;;;;;;;9.32;3.25;;;;;;;;;;5030837;28;20049;-70
2023/10/25 11:12:14;;;;;;;6.70;2.40;;;;;;;;;;5041224;28;20060;-70
2023/10/25 11:14:41;;;;;;;10.40;2.90;;;;;;;;;;5048254;28;20049;-69
2023/10/25 11:17:09;;;;;;;4.68;2.45;;;;;;;;;;5049606;28;20063;-70
2023/10/25 11:19:35;;;;;;;8.40;2.60;;;;;;;;;;5049165;28;20048;-69
2023/10/25 11:22:02;;;;;;;8.85;2.85;;;;;;;;;;5037721;28;20103;-70
2023/10/25 11:24:29;;;;;;;10.48;3.30;;;;;;;;;;5050223;28;20045;-71
2023/10/25 11:26:59;;;;;;;10.70;2.60;;;;;;;;;;5042454;28;20450;-67
2023/10/25 11:29:32;;;;;;;4.82;2.28;;;;;;;;;;5037671;28;20406;-69
2023/10/25 11:32:04;;;;;;;4.90;3.00;;;;;;;;;;5055414;28;20076;-68
2023/10/25 11:34:34;;;;;;;6.40;2.15;;;;;;;;;;5033328;28;20041;-69
2023/10/25 11:37:07;;;;;;;6.43;2.78;;;;;;;;;;5042357;28;20147;-69
2023/10/25 11:39:53;;;;;;;7.93;2.20;;;;;;;;;;5043480;28;20600;-68
2023/10/25 11:42:21;;;;;;;8.23;1.95;;;;;;;;;;5038392;28;20140;-68
2023/10/25 11:44:49;;;;;;;8.90;2.55;;;;;;;;;;5037412;28;20151;-69
2023/10/25 11:47:17;;;;;;;53.05;24.20;;;;;;;;;;5037381;28;20132;-71
2023/10/25 11:49:51;;;;;;;65.82;29.95;;;;;;;;;;5029582;28;20694;-69
2023/10/25 11:52:26;;;;;;;8.15;2.50;;;;;;;;;;5029563;28;20148;-68
2023/10/25 11:54:56;;;;;;;5.18;2.00;;;;;;;;;;5036166;28;20053;-68
2023/10/25 11:57:36;;;;;;;5.22;1.80;;;;;;;;;;5045147;28;20057;-70
2023/10/25 12:00:05;;;;;;;6.50;2.30;;;;;;;;;;5047693;28;20094;-72
2023/10/25 12:02:33;;;;;;;8.18;2.72;;;;;;;;;;5043549;28;20048;-69
2023/10/25 12:05:03;;;;;;;9.45;2.17;;;;;;;;;;5042124;28;20060;-70
2023/10/25 12:07:31;;;;;;;3.22;1.13;;;;;;;;;;5031822;28;20442;-68
2023/10/25 12:09:59;;;;;;;3.20;1.52;;;;;;;;;;5029235;28;20044;-68
2023/10/25 12:12:25;;;;;;;5.07;1.40;;;;;;;;;;5029411;28;20049;-69
2023/10/25 12:14:52;;;;;;;7.72;1.70;;;;;;;;;;5029358;28;20137;-70
2023/10/25 12:17:18;;;;;;;9.77;1.88;;;;;;;;;;5031149;28;20457;-69
2023/10/25 12:19:47;;;;;;;9.88;1.70;;;;;;;;;;5029854;28;20138;-69
2023/10/25 12:22:14;;;;;;;5.78;1.35;;;;;;;;;;5032675;28;20048;-69
2023/10/25 12:24:41;;;;;;;7.70;1.55;;;;;;;;;;5028154;28;20091;-70
2023/10/25 12:27:11;;;;;;;6.80;1.38;;;;;;;;;;5045434;28;20049;-69
2023/10/25 12:29:37;;;;;;;9.70;2.10;;;;;;;;;;5046095;28;20056;-70
2023/10/25 12:32:04;;;;;;;6.07;1.90;;;;;;;;;;5034248;28;20053;-67
2023/10/25 12:34:32;;;;;;;5.53;1.52;;;;;;;;;;5031146;28;20045;-68
2023/10/25 12:36:58;;;;;;;8.27;1.75;;;;;;;;;;5033722;28;20114;-72
2023/10/25 12:39:26;;;;;;;4.07;1.80;;;;;;;;;;5032112;28;20042;-68
2023/10/25 12:41:53;;;;;;;3.30;1.80;;;;;;;;;;5034190;28;20121;-70
2023/10/25 12:44:21;;;;;;;10.20;2.13;;;;;;;;;;5034098;28;20362;-72
2023/10/25 12:46:48;;;;;;;6.50;1.92;;;;;;;;;;5047564;28;20041;-72
2023/10/25 12:49:16;;;;;;;3.88;1.90;;;;;;;;;;5036844;28;20045;-73
2023/10/25 12:51:44;;;;;;;6.90;2.05;;;;;;;;;;5038295;28;20144;-74
2023/10/25 12:54:14;;;;;;;4.22;1.95;;;;;;;;;;5050449;28;20053;-72
2023/10/25 12:56:48;;;;;;;7.60;1.30;;;;;;;;;;5041737;28;20037;-72
2023/10/25 12:59:16;;;;;;;3.72;1.67;;;;;;;;;;5034916;28;20041;-70
2023/10/25 13:01:43;;;;;;;3.80;1.63;;;;;;;;;;5031911;28;20042;-72
2023/10/25 13:04:19;;;;;;;6.38;1.80;;;;;;;;;;5030793;28;20052;-72
2023/10/25 13:06:46;;;;;;;8.25;1.45;;;;;;;;;;5035060;28;20041;-69
2023/10/25 13:09:13;;;;;;;9.48;1.80;;;;;;;;;;5037112;28;20072;-72
2023/10/25 13:11:40;;;;;;;6.07;1.98;;;;;;;;;;5038091;28;20406;-71
2023/10/25 13:14:08;;;;;;;4.38;2.20;;;;;;;;;;5040364;28;20120;-72
2023/10/25 13:16:38;;;;;;;6.28;1.73;;;;;;;;;;5029147;28;20071;-74
2023/10/25 13:19:08;;;;;;;3.38;1.85;;;;;;;;;;5034863;28;20041;-73
2023/10/25 13:21:35;;;;;;;8.20;2.83;;;;;;;;;;5035174;28;20059;-71
2023/10/25 13:24:02;;;;;;;7.18;1.45;;;;;;;;;;5056330;28;20095;-76
2023/10/25 13:26:30;;;;;;;4.47;1.60;;;;;;;;;;5036718;28;20556;-73
2023/10/25 13:29:01;;;;;;;5.40;1.63;;;;;;;;;;5042424;28;20460;-73
2023/10/25 13:31:27;;;;;;;7.38;1.85;;;;;;;;;;5043039;28;20132;-73
2023/10/25 13:33:54;;;;;;;7.72;2.05;;;;;;;;;;5038300;28;20120;-72
2023/10/25 13:36:20;;;;;;;5.72;1.23;;;;;;;;;;5047499;28;20060;-71
2023/10/25 13:38:47;;;;;;;8.00;2.08;;;;;;;;;;5062238;28;20207;-72
2023/10/25 13:41:15;;;;;;;4.15;1.20;;;;;;;;;;5046053;28;20553;-72
2023/10/25 13:43:41;;;;;;;4.53;1.27;;;;;;;;;;5040943;28;20102;-71
2023/10/25 13:46:08;;;;;;;4.82;1.63;;;;;;;;;;5046818;28;20453;-71
2023/10/25 13:48:34;;;;;;;5.22;1.10;;;;;;;;;;5047094;28;20068;-71
2023/10/25 13:51:01;;;;;;;7.55;1.67;;;;;;;;;;5043099;28;20056;-73
2023/10/25 13:53:27;;;;;;;5.03;1.30;;;;;;;;;;5033771;28;20521;-74
2023/10/25 13:56:03;;;;;;;5.70;2.65;;;;;;;;;;5035929;28;20053;-71
2023/10/25 13:58:42;;;;;;;3.58;1.65;;;;;;;;;;5031552;28;20522;-73
2023/10/25 14:01:16;;;;;;;3.85;1.13;;;;;;;;;;5031531;28;20053;-74
2023/10/25 14:03:45;;;;;;;8.55;1.98;;;;;;;;;;5058292;28;20124;-71
2023/10/25 14:06:17;;;;;;;3.20;1.30;;;;;;;;;;5034567;28;20044;-73
2023/10/25 14:08:46;;;;;;;8.30;1.55;;;;;;;;;;5038197;28;20136;-73
2023/10/25 14:11:14;;;;;;;7.38;3.88;;;;;;;;;;5044378;28;20525;-74
2023/10/25 14:13:43;;;;;;;17.92;11.13;;;;;;;;;;5037537;28;20053;-73
2023/10/25 14:16:13;;;;;;;14.23;7.32;;;;;;;;;;5034458;28;20053;-71
2023/10/25 14:18:40;;;;;;;15.45;8.25;;;;;;;;;;5044608;28;20092;-74
2023/10/25 14:21:07;;;;;;;4.38;2.03;;;;;;;;;;5043795;28;20045;-72
2023/10/25 14:23:34;;;;;;;7.25;3.60;;;;;;;;;;5061164;28;20063;-73
2023/10/25 14:26:07;;;;;;;6.47;1.88;;;;;;;;;;5051030;28;20103;-71